sensor_id;sensor_type;location;lat;lon;timestamp;P1;durP1;ratioP1;P2;durP2;ratioP2
70153;SDS011;57519;51.494;-2.626;2023-04-24T00:00:32;16.03;;;8.77;;
70153;SDS011;57519;51.494;-2.626;2023-04-24T00:02:58;13.98;;;8.55;;
70153;SDS011;57519;51.494;-2.626;2023-04-24T00:05:23;16.20;;;9.17;;
70153;SDS011;57519;51.494;-2.626;2023-04-24T00:07:49;15.93;;;9.02;;
70153;SDS011;57519;51.494;-2.626;2023-04-24T00:10:18;15.80;;;9.00;;
70153;SDS011;57519;51.494;-2.626;2023-04-24T00:12:44;15.55;;;9.18;;
70153;SDS011;57519;51.494;-2.626;2023-04-24T00:15:09;17.67;;;9.33;;
70153;SDS011;57519;51.494;-2.626;2023-04-24T00:17:35;16.15;;;10.25;;
70153;SDS011;57519;51.494;-2.626;2023-04-24T00:20:01;16.35;;;9.32;;
70153;SDS011;57519;51.494;-2.626;2023-04-24T00:22:30;17.57;;;9.17;;
70153;SDS011;57519;51.494;-2.626;2023-04-24T00:24:56;15.68;;;10.25;;
70153;SDS011;57519;51.494;-2.626;2023-04-24T00:27:21;13.18;;;8.52;;
70153;SDS011;57519;51.494;-2.626;2023-04-24T00:29:47;18.42;;;9.63;;
70153;SDS011;57519;51.494;-2.626;2023-04-24T00:32:13;16.33;;;9.60;;
70153;SDS011;57519;51.494;-2.626;2023-04-24T00:34:39;20.00;;;9.77;;
70153;SDS011;57519;51.494;-2.626;2023-04-24T00:37:05;15.07;;;8.87;;
70153;SDS011;57519;51.494;-2.626;2023-04-24T00:39:31;13.77;;;8.68;;
70153;SDS011;57519;51.494;-2.626;2023-04-24T00:41:56;15.23;;;8.80;;
70153;SDS011;57519;51.494;-2.626;2023-04-24T00:44:22;13.13;;;7.68;;
70153;SDS011;57519;51.494;-2.626;2023-04-24T00:46:48;14.43;;;8.65;;
70153;SDS011;57519;51.494;-2.626;2023-04-24T00:49:18;14.23;;;8.80;;
70153;SDS011;57519;51.494;-2.626;2023-04-24T00:51:43;13.82;;;7.43;;
70153;SDS011;57519;51.494;-2.626;2023-04-24T00:54:10;14.35;;;8.20;;
70153;SDS011;57519;51.494;-2.626;2023-04-24T00:56:39;15.43;;;8.30;;
70153;SDS011;57519;51.494;-2.626;2023-04-24T00:59:06;17.42;;;8.60;;
70153;SDS011;57519;51.494;-2.626;2023-04-24T01:01:31;16.47;;;9.57;;
70153;SDS011;57519;51.494;-2.626;2023-04-24T01:03:57;13.73;;;8.77;;
70153;SDS011;57519;51.494;-2.626;2023-04-24T01:06:23;17.40;;;9.17;;
70153;SDS011;57519;51.494;-2.626;2023-04-24T01:08:53;13.48;;;8.45;;
70153;SDS011;57519;51.494;-2.626;2023-04-24T01:11:20;14.93;;;8.43;;
70153;SDS011;57519;51.494;-2.626;2023-04-24T01:13:47;16.40;;;9.32;;
70153;SDS011;57519;51.494;-2.626;2023-04-24T01:16:13;18.35;;;9.43;;
70153;SDS011;57519;51.494;-2.626;2023-04-24T01:18:42;15.13;;;8.47;;
70153;SDS011;57519;51.494;-2.626;2023-04-24T01:21:09;13.48;;;8.32;;
70153;SDS011;57519;51.494;-2.626;2023-04-24T01:23:38;12.75;;;7.78;;
70153;SDS011;57519;51.494;-2.626;2023-04-24T01:26:03;15.20;;;8.70;;
70153;SDS011;57519;51.494;-2.626;2023-04-24T01:28:29;13.50;;;8.90;;
70153;SDS011;57519;51.494;-2.626;2023-04-24T01:30:55;13.57;;;8.53;;
70153;SDS011;57519;51.494;-2.626;2023-04-24T01:33:21;19.33;;;9.05;;
70153;SDS011;57519;51.494;-2.626;2023-04-24T01:35:47;13.63;;;8.20;;
70153;SDS011;57519;51.494;-2.626;2023-04-24T01:38:13;14.18;;;8.57;;
70153;SDS011;57519;51.494;-2.626;2023-04-24T01:40:39;13.57;;;8.07;;
70153;SDS011;57519;51.494;-2.626;2023-04-24T01:43:04;17.17;;;7.60;;
70153;SDS011;57519;51.494;-2.626;2023-04-24T01:45:30;17.88;;;9.50;;
70153;SDS011;57519;51.494;-2.626;2023-04-24T01:47:55;15.60;;;8.90;;
70153;SDS011;57519;51.494;-2.626;2023-04-24T01:50:21;12.07;;;7.97;;
70153;SDS011;57519;51.494;-2.626;2023-04-24T01:52:46;17.20;;;8.43;;
70153;SDS011;57519;51.494;-2.626;2023-04-24T01:55:12;17.87;;;8.53;;
70153;SDS011;57519;51.494;-2.626;2023-04-24T01:57:37;14.37;;;7.87;;
70153;SDS011;57519;51.494;-2.626;2023-04-24T02:00:03;12.83;;;7.07;;
70153;SDS011;57519;51.494;-2.626;2023-04-24T02:02:29;14.18;;;8.30;;
70153;SDS011;57519;51.494;-2.626;2023-04-24T02:04:55;16.33;;;8.77;;
70153;SDS011;57519;51.494;-2.626;2023-04-24T02:07:21;19.67;;;9.10;;
70153;SDS011;57519;51.494;-2.626;2023-04-24T02:09:47;15.13;;;8.85;;
70153;SDS011;57519;51.494;-2.626;2023-04-24T02:12:13;14.73;;;8.75;;
70153;SDS011;57519;51.494;-2.626;2023-04-24T02:14:39;12.83;;;8.07;;
70153;SDS011;57519;51.494;-2.626;2023-04-24T02:17:04;16.45;;;7.75;;
70153;SDS011;57519;51.494;-2.626;2023-04-24T02:19:30;14.37;;;8.30;;
70153;SDS011;57519;51.494;-2.626;2023-04-24T02:21:56;13.87;;;8.17;;
70153;SDS011;57519;51.494;-2.626;2023-04-24T02:24:21;17.02;;;8.63;;
70153;SDS011;57519;51.494;-2.626;2023-04-24T02:26:46;12.47;;;7.70;;
70153;SDS011;57519;51.494;-2.626;2023-04-24T02:29:12;16.67;;;9.03;;
70153;SDS011;57519;51.494;-2.626;2023-04-24T02:31:37;15.87;;;8.73;;
70153;SDS011;57519;51.494;-2.626;2023-04-24T02:34:03;15.87;;;8.53;;
70153;SDS011;57519;51.494;-2.626;2023-04-24T02:36:28;15.90;;;8.40;;
70153;SDS011;57519;51.494;-2.626;2023-04-24T02:38:53;14.80;;;8.73;;
70153;SDS011;57519;51.494;-2.626;2023-04-24T02:41:19;13.23;;;8.47;;
70153;SDS011;57519;51.494;-2.626;2023-04-24T02:43:44;14.10;;;7.77;;
70153;SDS011;57519;51.494;-2.626;2023-04-24T02:46:10;13.82;;;8.48;;
70153;SDS011;57519;51.494;-2.626;2023-04-24T02:48:35;15.80;;;8.43;;
70153;SDS011;57519;51.494;-2.626;2023-04-24T02:51:01;14.00;;;8.40;;
70153;SDS011;57519;51.494;-2.626;2023-04-24T02:53:26;13.90;;;8.50;;
70153;SDS011;57519;51.494;-2.626;2023-04-24T02:55:51;13.43;;;8.32;;
70153;SDS011;57519;51.494;-2.626;2023-04-24T02:58:17;14.53;;;8.17;;
70153;SDS011;57519;51.494;-2.626;2023-04-24T03:00:45;16.75;;;8.60;;
70153;SDS011;57519;51.494;-2.626;2023-04-24T03:03:10;15.90;;;9.10;;
70153;SDS011;57519;51.494;-2.626;2023-04-24T03:05:36;13.55;;;8.35;;
70153;SDS011;57519;51.494;-2.626;2023-04-24T03:08:01;15.67;;;7.57;;
70153;SDS011;57519;51.494;-2.626;2023-04-24T03:10:27;13.70;;;9.00;;
70153;SDS011;57519;51.494;-2.626;2023-04-24T03:12:52;15.57;;;8.30;;
70153;SDS011;57519;51.494;-2.626;2023-04-24T03:15:17;13.45;;;7.90;;
70153;SDS011;57519;51.494;-2.626;2023-04-24T03:17:43;13.17;;;6.80;;
70153;SDS011;57519;51.494;-2.626;2023-04-24T03:20:08;12.97;;;7.77;;
70153;SDS011;57519;51.494;-2.626;2023-04-24T03:22:34;10.93;;;6.88;;
70153;SDS011;57519;51.494;-2.626;2023-04-24T03:25:00;11.67;;;7.37;;
70153;SDS011;57519;51.494;-2.626;2023-04-24T03:27:26;13.52;;;6.82;;
70153;SDS011;57519;51.494;-2.626;2023-04-24T03:29:51;14.53;;;7.47;;
70153;SDS011;57519;51.494;-2.626;2023-04-24T03:32:20;11.65;;;7.45;;
70153;SDS011;57519;51.494;-2.626;2023-04-24T03:34:46;12.35;;;8.15;;
70153;SDS011;57519;51.494;-2.626;2023-04-24T03:37:12;15.00;;;7.90;;
70153;SDS011;57519;51.494;-2.626;2023-04-24T03:39:37;14.50;;;8.77;;
70153;SDS011;57519;51.494;-2.626;2023-04-24T03:42:02;15.07;;;8.40;;
70153;SDS011;57519;51.494;-2.626;2023-04-24T03:44:28;13.90;;;8.10;;
70153;SDS011;57519;51.494;-2.626;2023-04-24T03:46:53;10.97;;;7.93;;
70153;SDS011;57519;51.494;-2.626;2023-04-24T03:49:19;19.93;;;8.80;;
70153;SDS011;57519;51.494;-2.626;2023-04-24T03:51:45;17.88;;;8.90;;
70153;SDS011;57519;51.494;-2.626;2023-04-24T03:54:10;16.33;;;9.00;;
70153;SDS011;57519;51.494;-2.626;2023-04-24T03:56:36;14.20;;;9.10;;
70153;SDS011;57519;51.494;-2.626;2023-04-24T03:59:01;15.18;;;8.30;;
70153;SDS011;57519;51.494;-2.626;2023-04-24T04:01:27;16.67;;;8.77;;
70153;SDS011;57519;51.494;-2.626;2023-04-24T04:03:53;16.42;;;9.18;;
70153;SDS011;57519;51.494;-2.626;2023-04-24T04:06:18;14.43;;;8.20;;
70153;SDS011;57519;51.494;-2.626;2023-04-24T04:08:44;18.63;;;9.60;;
70153;SDS011;57519;51.494;-2.626;2023-04-24T04:11:10;17.13;;;9.57;;
70153;SDS011;57519;51.494;-2.626;2023-04-24T04:13:35;14.53;;;9.57;;
70153;SDS011;57519;51.494;-2.626;2023-04-24T04:16:00;19.73;;;9.95;;
70153;SDS011;57519;51.494;-2.626;2023-04-24T04:18:26;15.87;;;9.40;;
70153;SDS011;57519;51.494;-2.626;2023-04-24T04:20:51;17.33;;;9.20;;
70153;SDS011;57519;51.494;-2.626;2023-04-24T04:23:17;16.93;;;9.10;;
70153;SDS011;57519;51.494;-2.626;2023-04-24T04:25:42;15.00;;;9.43;;
70153;SDS011;57519;51.494;-2.626;2023-04-24T04:28:08;20.60;;;9.80;;
70153;SDS011;57519;51.494;-2.626;2023-04-24T04:30:33;17.23;;;8.30;;
70153;SDS011;57519;51.494;-2.626;2023-04-24T04:32:59;15.77;;;8.80;;
70153;SDS011;57519;51.494;-2.626;2023-04-24T04:35:24;19.30;;;8.98;;
70153;SDS011;57519;51.494;-2.626;2023-04-24T04:37:50;16.13;;;8.77;;
70153;SDS011;57519;51.494;-2.626;2023-04-24T04:40:16;14.43;;;8.30;;
70153;SDS011;57519;51.494;-2.626;2023-04-24T04:42:42;15.13;;;8.40;;
70153;SDS011;57519;51.494;-2.626;2023-04-24T04:45:10;14.30;;;7.90;;
70153;SDS011;57519;51.494;-2.626;2023-04-24T04:47:36;16.20;;;8.20;;
70153;SDS011;57519;51.494;-2.626;2023-04-24T04:50:02;12.20;;;7.25;;
70153;SDS011;57519;51.494;-2.626;2023-04-24T04:52:29;14.63;;;8.48;;
70153;SDS011;57519;51.494;-2.626;2023-04-24T04:54:54;15.20;;;8.37;;
70153;SDS011;57519;51.494;-2.626;2023-04-24T04:57:20;12.73;;;7.57;;
70153;SDS011;57519;51.494;-2.626;2023-04-24T04:59:46;13.43;;;8.17;;
70153;SDS011;57519;51.494;-2.626;2023-04-24T05:02:11;14.83;;;7.90;;
70153;SDS011;57519;51.494;-2.626;2023-04-24T05:04:37;12.57;;;7.73;;
70153;SDS011;57519;51.494;-2.626;2023-04-24T05:07:02;14.95;;;7.22;;
70153;SDS011;57519;51.494;-2.626;2023-04-24T05:09:28;12.70;;;7.50;;
70153;SDS011;57519;51.494;-2.626;2023-04-24T05:11:54;15.35;;;7.82;;
70153;SDS011;57519;51.494;-2.626;2023-04-24T05:14:21;13.90;;;8.20;;
70153;SDS011;57519;51.494;-2.626;2023-04-24T05:16:47;15.77;;;8.80;;
70153;SDS011;57519;51.494;-2.626;2023-04-24T05:19:12;18.75;;;9.82;;
70153;SDS011;57519;51.494;-2.626;2023-04-24T05:21:39;19.40;;;9.63;;
70153;SDS011;57519;51.494;-2.626;2023-04-24T05:24:05;18.13;;;9.37;;
70153;SDS011;57519;51.494;-2.626;2023-04-24T05:26:31;17.15;;;9.07;;
70153;SDS011;57519;51.494;-2.626;2023-04-24T05:28:56;14.27;;;8.87;;
70153;SDS011;57519;51.494;-2.626;2023-04-24T05:31:22;17.83;;;8.65;;
70153;SDS011;57519;51.494;-2.626;2023-04-24T05:33:47;18.00;;;9.13;;
70153;SDS011;57519;51.494;-2.626;2023-04-24T05:36:13;17.93;;;8.50;;
70153;SDS011;57519;51.494;-2.626;2023-04-24T05:38:38;14.45;;;8.73;;
70153;SDS011;57519;51.494;-2.626;2023-04-24T05:41:04;14.73;;;9.27;;
70153;SDS011;57519;51.494;-2.626;2023-04-24T05:43:29;16.50;;;8.73;;
70153;SDS011;57519;51.494;-2.626;2023-04-24T05:45:55;17.07;;;9.30;;
70153;SDS011;57519;51.494;-2.626;2023-04-24T05:48:20;16.90;;;9.30;;
70153;SDS011;57519;51.494;-2.626;2023-04-24T05:50:47;20.42;;;10.27;;
70153;SDS011;57519;51.494;-2.626;2023-04-24T05:53:13;21.30;;;9.85;;
70153;SDS011;57519;51.494;-2.626;2023-04-24T05:55:38;19.80;;;9.30;;
70153;SDS011;57519;51.494;-2.626;2023-04-24T05:58:04;18.07;;;8.87;;
70153;SDS011;57519;51.494;-2.626;2023-04-24T06:00:29;16.88;;;9.48;;
70153;SDS011;57519;51.494;-2.626;2023-04-24T06:02:55;24.80;;;10.90;;
70153;SDS011;57519;51.494;-2.626;2023-04-24T06:05:20;19.73;;;11.10;;
70153;SDS011;57519;51.494;-2.626;2023-04-24T06:07:46;22.47;;;10.70;;
70153;SDS011;57519;51.494;-2.626;2023-04-24T06:10:13;23.50;;;11.93;;
70153;SDS011;57519;51.494;-2.626;2023-04-24T06:12:38;19.00;;;11.23;;
70153;SDS011;57519;51.494;-2.626;2023-04-24T06:15:04;19.75;;;9.90;;
70153;SDS011;57519;51.494;-2.626;2023-04-24T06:17:30;20.95;;;10.63;;
70153;SDS011;57519;51.494;-2.626;2023-04-24T06:19:56;15.67;;;9.97;;
70153;SDS011;57519;51.494;-2.626;2023-04-24T06:22:21;17.17;;;9.77;;
70153;SDS011;57519;51.494;-2.626;2023-04-24T06:24:46;18.60;;;10.07;;
70153;SDS011;57519;51.494;-2.626;2023-04-24T06:27:13;26.95;;;10.57;;
70153;SDS011;57519;51.494;-2.626;2023-04-24T06:29:39;25.38;;;10.48;;
70153;SDS011;57519;51.494;-2.626;2023-04-24T06:32:04;17.53;;;9.40;;
70153;SDS011;57519;51.494;-2.626;2023-04-24T06:34:30;18.67;;;9.27;;
70153;SDS011;57519;51.494;-2.626;2023-04-24T06:36:56;23.30;;;9.90;;
70153;SDS011;57519;51.494;-2.626;2023-04-24T06:39:21;18.37;;;9.87;;
70153;SDS011;57519;51.494;-2.626;2023-04-24T06:41:47;13.43;;;9.05;;
70153;SDS011;57519;51.494;-2.626;2023-04-24T06:44:12;17.13;;;9.73;;
70153;SDS011;57519;51.494;-2.626;2023-04-24T06:46:39;26.45;;;10.82;;
70153;SDS011;57519;51.494;-2.626;2023-04-24T06:49:14;15.27;;;9.82;;
70153;SDS011;57519;51.494;-2.626;2023-04-24T06:51:50;20.13;;;9.73;;
70153;SDS011;57519;51.494;-2.626;2023-04-24T06:54:15;15.83;;;10.00;;
70153;SDS011;57519;51.494;-2.626;2023-04-24T06:56:43;17.95;;;10.20;;
70153;SDS011;57519;51.494;-2.626;2023-04-24T06:59:11;18.42;;;10.20;;
70153;SDS011;57519;51.494;-2.626;2023-04-24T07:01:39;19.20;;;10.07;;
70153;SDS011;57519;51.494;-2.626;2023-04-24T07:06:43;21.00;;;10.07;;
70153;SDS011;57519;51.494;-2.626;2023-04-24T07:09:18;20.67;;;10.53;;
70153;SDS011;57519;51.494;-2.626;2023-04-24T07:12:03;19.48;;;10.75;;
70153;SDS011;57519;51.494;-2.626;2023-04-24T07:14:32;18.67;;;10.30;;
70153;SDS011;57519;51.494;-2.626;2023-04-24T07:16:58;17.83;;;9.37;;
70153;SDS011;57519;51.494;-2.626;2023-04-24T07:19:23;18.48;;;9.60;;
70153;SDS011;57519;51.494;-2.626;2023-04-24T07:21:49;16.40;;;9.57;;
70153;SDS011;57519;51.494;-2.626;2023-04-24T07:24:15;17.38;;;9.85;;
70153;SDS011;57519;51.494;-2.626;2023-04-24T07:26:40;14.90;;;9.20;;
70153;SDS011;57519;51.494;-2.626;2023-04-24T07:29:06;20.23;;;10.00;;
70153;SDS011;57519;51.494;-2.626;2023-04-24T07:31:32;15.97;;;9.37;;
70153;SDS011;57519;51.494;-2.626;2023-04-24T07:33:58;16.80;;;9.40;;
70153;SDS011;57519;51.494;-2.626;2023-04-24T07:36:23;15.67;;;8.20;;
70153;SDS011;57519;51.494;-2.626;2023-04-24T07:38:50;16.65;;;9.77;;
70153;SDS011;57519;51.494;-2.626;2023-04-24T07:41:16;21.37;;;10.23;;
70153;SDS011;57519;51.494;-2.626;2023-04-24T07:46:17;19.45;;;9.63;;
70153;SDS011;57519;51.494;-2.626;2023-04-24T07:48:42;14.80;;;8.43;;
70153;SDS011;57519;51.494;-2.626;2023-04-24T07:51:08;13.63;;;8.90;;
70153;SDS011;57519;51.494;-2.626;2023-04-24T07:53:35;15.20;;;7.83;;
70153;SDS011;57519;51.494;-2.626;2023-04-24T07:56:01;12.57;;;7.13;;
70153;SDS011;57519;51.494;-2.626;2023-04-24T07:58:26;13.47;;;6.73;;
70153;SDS011;57519;51.494;-2.626;2023-04-24T08:00:52;13.33;;;7.93;;
70153;SDS011;57519;51.494;-2.626;2023-04-24T08:03:17;13.60;;;7.82;;
70153;SDS011;57519;51.494;-2.626;2023-04-24T08:05:44;11.50;;;7.27;;
70153;SDS011;57519;51.494;-2.626;2023-04-24T08:08:10;13.98;;;7.60;;
70153;SDS011;57519;51.494;-2.626;2023-04-24T08:10:36;11.07;;;6.97;;
70153;SDS011;57519;51.494;-2.626;2023-04-24T08:13:01;12.63;;;7.70;;
70153;SDS011;57519;51.494;-2.626;2023-04-24T08:15:27;12.10;;;7.43;;
70153;SDS011;57519;51.494;-2.626;2023-04-24T08:17:53;14.80;;;7.73;;
70153;SDS011;57519;51.494;-2.626;2023-04-24T08:20:18;12.00;;;7.10;;
70153;SDS011;57519;51.494;-2.626;2023-04-24T08:22:43;14.90;;;7.40;;
70153;SDS011;57519;51.494;-2.626;2023-04-24T08:25:10;12.10;;;7.70;;
70153;SDS011;57519;51.494;-2.626;2023-04-24T08:27:36;12.80;;;7.68;;
70153;SDS011;57519;51.494;-2.626;2023-04-24T08:48:07;13.55;;;9.23;;
70153;SDS011;57519;51.494;-2.626;2023-04-24T08:50:34;25.87;;;10.53;;
70153;SDS011;57519;51.494;-2.626;2023-04-24T08:55:28;21.52;;;10.20;;
70153;SDS011;57519;51.494;-2.626;2023-04-24T08:57:55;17.13;;;8.65;;
70153;SDS011;57519;51.494;-2.626;2023-04-24T09:00:21;19.50;;;10.63;;
70153;SDS011;57519;51.494;-2.626;2023-04-24T09:02:48;20.80;;;9.90;;
70153;SDS011;57519;51.494;-2.626;2023-04-24T09:05:16;21.80;;;9.88;;
70153;SDS011;57519;51.494;-2.626;2023-04-24T09:07:44;14.70;;;10.23;;
70153;SDS011;57519;51.494;-2.626;2023-04-24T09:10:11;18.00;;;10.05;;
70153;SDS011;57519;51.494;-2.626;2023-04-24T09:12:37;22.73;;;11.13;;
70153;SDS011;57519;51.494;-2.626;2023-04-24T09:15:03;16.95;;;10.70;;
70153;SDS011;57519;51.494;-2.626;2023-04-24T09:17:30;21.30;;;11.47;;
70153;SDS011;57519;51.494;-2.626;2023-04-24T09:19:55;18.10;;;10.88;;
70153;SDS011;57519;51.494;-2.626;2023-04-24T09:22:21;19.00;;;10.13;;
70153;SDS011;57519;51.494;-2.626;2023-04-24T09:24:47;17.45;;;10.57;;
70153;SDS011;57519;51.494;-2.626;2023-04-24T09:27:12;27.93;;;12.40;;
70153;SDS011;57519;51.494;-2.626;2023-04-24T09:29:42;21.40;;;11.60;;
70153;SDS011;57519;51.494;-2.626;2023-04-24T09:32:19;23.77;;;12.27;;
70153;SDS011;57519;51.494;-2.626;2023-04-24T09:34:50;22.90;;;12.93;;
70153;SDS011;57519;51.494;-2.626;2023-04-24T09:37:40;22.92;;;10.55;;
70153;SDS011;57519;51.494;-2.626;2023-04-24T09:40:18;20.73;;;11.07;;
70153;SDS011;57519;51.494;-2.626;2023-04-24T09:42:51;19.97;;;12.13;;
70153;SDS011;57519;51.494;-2.626;2023-04-24T09:45:18;21.17;;;11.15;;
70153;SDS011;57519;51.494;-2.626;2023-04-24T09:47:45;18.95;;;10.95;;
70153;SDS011;57519;51.494;-2.626;2023-04-24T09:50:15;28.07;;;12.07;;
70153;SDS011;57519;51.494;-2.626;2023-04-24T09:52:55;24.67;;;12.25;;
70153;SDS011;57519;51.494;-2.626;2023-04-24T09:55:22;24.95;;;13.07;;
70153;SDS011;57519;51.494;-2.626;2023-04-24T09:57:49;23.07;;;12.20;;
70153;SDS011;57519;51.494;-2.626;2023-04-24T10:00:28;18.97;;;11.07;;
70153;SDS011;57519;51.494;-2.626;2023-04-24T10:02:56;20.30;;;11.13;;
70153;SDS011;57519;51.494;-2.626;2023-04-24T10:05:31;18.30;;;11.05;;
70153;SDS011;57519;51.494;-2.626;2023-04-24T10:08:02;22.70;;;13.43;;
70153;SDS011;57519;51.494;-2.626;2023-04-24T10:10:30;23.75;;;13.85;;
70153;SDS011;57519;51.494;-2.626;2023-04-24T10:12:56;24.53;;;12.67;;
70153;SDS011;57519;51.494;-2.626;2023-04-24T10:15:22;25.63;;;12.57;;
70153;SDS011;57519;51.494;-2.626;2023-04-24T10:17:48;25.47;;;13.03;;
70153;SDS011;57519;51.494;-2.626;2023-04-24T10:20:20;24.58;;;12.00;;
70153;SDS011;57519;51.494;-2.626;2023-04-24T10:22:50;21.52;;;10.18;;
70153;SDS011;57519;51.494;-2.626;2023-04-24T10:25:21;23.55;;;12.52;;
70153;SDS011;57519;51.494;-2.626;2023-04-24T10:27:48;24.23;;;12.23;;
70153;SDS011;57519;51.494;-2.626;2023-04-24T10:30:14;23.85;;;12.10;;
70153;SDS011;57519;51.494;-2.626;2023-04-24T10:32:40;21.40;;;11.82;;
70153;SDS011;57519;51.494;-2.626;2023-04-24T10:35:06;27.03;;;12.60;;
70153;SDS011;57519;51.494;-2.626;2023-04-24T10:37:49;24.83;;;12.90;;
70153;SDS011;57519;51.494;-2.626;2023-04-24T10:40:17;26.40;;;13.80;;
70153;SDS011;57519;51.494;-2.626;2023-04-24T10:42:46;26.02;;;13.40;;
70153;SDS011;57519;51.494;-2.626;2023-04-24T10:45:20;28.33;;;14.40;;
70153;SDS011;57519;51.494;-2.626;2023-04-24T10:47:53;26.87;;;14.33;;
70153;SDS011;57519;51.494;-2.626;2023-04-24T10:50:23;21.70;;;11.82;;
70153;SDS011;57519;51.494;-2.626;2023-04-24T10:52:50;23.25;;;12.85;;
70153;SDS011;57519;51.494;-2.626;2023-04-24T10:55:39;21.58;;;13.95;;
70153;SDS011;57519;51.494;-2.626;2023-04-24T10:58:07;19.70;;;11.25;;
70153;SDS011;57519;51.494;-2.626;2023-04-24T11:00:33;19.03;;;11.50;;
70153;SDS011;57519;51.494;-2.626;2023-04-24T11:03:04;24.27;;;13.38;;
70153;SDS011;57519;51.494;-2.626;2023-04-24T11:05:50;24.90;;;13.32;;
70153;SDS011;57519;51.494;-2.626;2023-04-24T11:08:30;22.17;;;12.23;;
70153;SDS011;57519;51.494;-2.626;2023-04-24T11:11:03;18.88;;;11.35;;
70153;SDS011;57519;51.494;-2.626;2023-04-24T11:20:16;16.15;;;9.73;;
70153;SDS011;57519;51.494;-2.626;2023-04-24T11:49:23;15.48;;;10.10;;
70153;SDS011;57519;51.494;-2.626;2023-04-24T11:59:15;19.20;;;11.00;;
70153;SDS011;57519;51.494;-2.626;2023-04-24T12:05:02;14.38;;;9.05;;
70153;SDS011;57519;51.494;-2.626;2023-04-24T12:07:28;13.80;;;9.20;;
70153;SDS011;57519;51.494;-2.626;2023-04-24T12:13:32;13.25;;;8.55;;
70153;SDS011;57519;51.494;-2.626;2023-04-24T12:19:21;13.50;;;8.20;;
70153;SDS011;57519;51.494;-2.626;2023-04-24T12:22:00;14.35;;;8.85;;
70153;SDS011;57519;51.494;-2.626;2023-04-24T12:24:27;11.30;;;7.97;;
70153;SDS011;57519;51.494;-2.626;2023-04-24T12:26:53;13.30;;;8.75;;
70153;SDS011;57519;51.494;-2.626;2023-04-24T12:29:20;13.70;;;7.70;;
70153;SDS011;57519;51.494;-2.626;2023-04-24T12:31:46;11.10;;;7.18;;
70153;SDS011;57519;51.494;-2.626;2023-04-24T12:34:21;11.97;;;7.20;;
70153;SDS011;57519;51.494;-2.626;2023-04-24T12:36:47;11.97;;;7.13;;
70153;SDS011;57519;51.494;-2.626;2023-04-24T12:39:16;10.20;;;7.65;;
70153;SDS011;57519;51.494;-2.626;2023-04-24T12:41:55;10.98;;;7.00;;
70153;SDS011;57519;51.494;-2.626;2023-04-24T12:44:32;11.07;;;6.77;;
70153;SDS011;57519;51.494;-2.626;2023-04-24T12:47:02;8.25;;;5.95;;
70153;SDS011;57519;51.494;-2.626;2023-04-24T12:49:29;12.60;;;7.20;;
70153;SDS011;57519;51.494;-2.626;2023-04-24T12:51:55;10.38;;;7.13;;
70153;SDS011;57519;51.494;-2.626;2023-04-24T12:54:21;11.47;;;7.53;;
70153;SDS011;57519;51.494;-2.626;2023-04-24T12:56:47;10.75;;;7.13;;
70153;SDS011;57519;51.494;-2.626;2023-04-24T12:59:12;11.37;;;7.43;;
70153;SDS011;57519;51.494;-2.626;2023-04-24T13:01:38;12.53;;;7.07;;
70153;SDS011;57519;51.494;-2.626;2023-04-24T13:04:04;14.82;;;8.18;;
70153;SDS011;57519;51.494;-2.626;2023-04-24T13:06:30;13.17;;;8.13;;
70153;SDS011;57519;51.494;-2.626;2023-04-24T13:08:56;12.68;;;7.72;;
70153;SDS011;57519;51.494;-2.626;2023-04-24T13:11:22;13.50;;;6.95;;
70153;SDS011;57519;51.494;-2.626;2023-04-24T13:13:48;10.97;;;7.33;;
70153;SDS011;57519;51.494;-2.626;2023-04-24T13:16:14;13.48;;;8.32;;
70153;SDS011;57519;51.494;-2.626;2023-04-24T13:18:40;12.57;;;7.95;;
70153;SDS011;57519;51.494;-2.626;2023-04-24T13:21:05;10.83;;;6.97;;
70153;SDS011;57519;51.494;-2.626;2023-04-24T13:23:31;12.70;;;7.30;;
70153;SDS011;57519;51.494;-2.626;2023-04-24T13:25:56;9.93;;;6.97;;
70153;SDS011;57519;51.494;-2.626;2023-04-24T13:28:22;11.02;;;7.43;;
70153;SDS011;57519;51.494;-2.626;2023-04-24T13:30:49;11.93;;;7.35;;
70153;SDS011;57519;51.494;-2.626;2023-04-24T13:33:15;14.30;;;7.10;;
70153;SDS011;57519;51.494;-2.626;2023-04-24T13:35:40;10.60;;;6.77;;
70153;SDS011;57519;51.494;-2.626;2023-04-24T13:38:05;10.00;;;6.90;;
70153;SDS011;57519;51.494;-2.626;2023-04-24T13:40:31;12.47;;;7.27;;
70153;SDS011;57519;51.494;-2.626;2023-04-24T13:42:57;11.32;;;6.65;;
70153;SDS011;57519;51.494;-2.626;2023-04-24T13:45:23;13.17;;;7.80;;
70153;SDS011;57519;51.494;-2.626;2023-04-24T13:47:48;12.17;;;7.00;;
70153;SDS011;57519;51.494;-2.626;2023-04-24T13:50:14;13.52;;;8.25;;
70153;SDS011;57519;51.494;-2.626;2023-04-24T13:52:40;12.23;;;7.80;;
70153;SDS011;57519;51.494;-2.626;2023-04-24T13:55:05;12.15;;;7.65;;
70153;SDS011;57519;51.494;-2.626;2023-04-24T13:57:31;10.95;;;6.95;;
70153;SDS011;57519;51.494;-2.626;2023-04-24T13:59:57;11.10;;;7.23;;
70153;SDS011;57519;51.494;-2.626;2023-04-24T14:02:26;11.23;;;7.32;;
70153;SDS011;57519;51.494;-2.626;2023-04-24T14:04:52;14.40;;;7.40;;
70153;SDS011;57519;51.494;-2.626;2023-04-24T14:07:17;77.53;;;16.88;;
70153;SDS011;57519;51.494;-2.626;2023-04-24T14:09:46;14.70;;;7.53;;
70153;SDS011;57519;51.494;-2.626;2023-04-24T14:12:12;11.18;;;6.95;;
70153;SDS011;57519;51.494;-2.626;2023-04-24T14:14:39;16.88;;;7.28;;
70153;SDS011;57519;51.494;-2.626;2023-04-24T14:17:05;14.32;;;6.78;;
70153;SDS011;57519;51.494;-2.626;2023-04-24T14:19:31;13.80;;;6.47;;
70153;SDS011;57519;51.494;-2.626;2023-04-24T14:21:56;17.02;;;7.88;;
70153;SDS011;57519;51.494;-2.626;2023-04-24T14:24:23;14.13;;;7.00;;
70153;SDS011;57519;51.494;-2.626;2023-04-24T14:26:48;11.03;;;6.73;;
70153;SDS011;57519;51.494;-2.626;2023-04-24T14:29:14;13.50;;;7.03;;
70153;SDS011;57519;51.494;-2.626;2023-04-24T14:31:40;12.63;;;6.57;;
70153;SDS011;57519;51.494;-2.626;2023-04-24T14:34:05;9.50;;;6.53;;
70153;SDS011;57519;51.494;-2.626;2023-04-24T14:36:31;8.95;;;6.72;;
70153;SDS011;57519;51.494;-2.626;2023-04-24T14:38:56;9.57;;;6.53;;
70153;SDS011;57519;51.494;-2.626;2023-04-24T14:41:22;13.67;;;6.80;;
70153;SDS011;57519;51.494;-2.626;2023-04-24T14:43:47;12.53;;;7.00;;
70153;SDS011;57519;51.494;-2.626;2023-04-24T14:46:12;10.60;;;6.57;;
70153;SDS011;57519;51.494;-2.626;2023-04-24T14:48:38;7.60;;;5.43;;
70153;SDS011;57519;51.494;-2.626;2023-04-24T14:51:03;10.07;;;6.23;;
70153;SDS011;57519;51.494;-2.626;2023-04-24T14:53:29;8.80;;;6.43;;
70153;SDS011;57519;51.494;-2.626;2023-04-24T14:55:54;8.15;;;5.78;;
70153;SDS011;57519;51.494;-2.626;2023-04-24T14:58:20;7.67;;;6.43;;
70153;SDS011;57519;51.494;-2.626;2023-04-24T15:00:45;10.23;;;6.43;;
70153;SDS011;57519;51.494;-2.626;2023-04-24T15:03:11;12.27;;;5.57;;
70153;SDS011;57519;51.494;-2.626;2023-04-24T15:05:36;9.57;;;5.57;;
70153;SDS011;57519;51.494;-2.626;2023-04-24T15:08:01;8.83;;;5.63;;
70153;SDS011;57519;51.494;-2.626;2023-04-24T15:10:27;11.23;;;5.80;;
70153;SDS011;57519;51.494;-2.626;2023-04-24T15:12:54;7.72;;;5.00;;
70153;SDS011;57519;51.494;-2.626;2023-04-24T15:15:20;10.00;;;5.60;;
70153;SDS011;57519;51.494;-2.626;2023-04-24T15:17:45;11.27;;;6.20;;
70153;SDS011;57519;51.494;-2.626;2023-04-24T15:20:11;10.27;;;5.38;;
70153;SDS011;57519;51.494;-2.626;2023-04-24T15:22:36;7.83;;;5.73;;
70153;SDS011;57519;51.494;-2.626;2023-04-24T15:25:04;17.40;;;7.33;;
70153;SDS011;57519;51.494;-2.626;2023-04-24T15:27:42;8.25;;;5.22;;
70153;SDS011;57519;51.494;-2.626;2023-04-24T15:30:10;6.80;;;5.03;;
70153;SDS011;57519;51.494;-2.626;2023-04-24T15:32:36;9.88;;;5.78;;